createdAt,value
2023-12-09T00:00:52.382Z,92.43
2023-12-09T00:03:19.446Z,75.80
2023-12-09T00:05:46.448Z,92.70
2023-12-09T00:08:13.443Z,84.68
2023-12-09T00:10:40.259Z,92.32
2023-12-09T00:13:07.184Z,87.72
2023-12-09T00:15:34.100Z,93.15
2023-12-09T00:18:01.542Z,86.95
2023-12-09T00:20:28.908Z,102.38
2023-12-09T00:22:55.779Z,86.35
2023-12-09T00:25:22.783Z,85.00
2023-12-09T00:27:50.107Z,93.85
2023-12-09T00:30:17.267Z,87.70
2023-12-09T00:32:45.550Z,84.07
2023-12-09T00:35:12.578Z,88.07
2023-12-09T00:37:42.289Z,86.70
2023-12-09T00:40:09.676Z,94.32
2023-12-09T00:42:36.653Z,83.70
2023-12-09T00:45:05.238Z,104.53
2023-12-09T00:47:32.188Z,97.63
2023-12-09T00:49:59.146Z,75.60
2023-12-09T00:52:26.338Z,82.72
2023-12-09T00:54:53.305Z,85.57
2023-12-09T00:57:22.121Z,78.35
2023-12-09T00:59:49.367Z,97.30
2023-12-09T01:02:16.347Z,77.30
2023-12-09T01:04:43.660Z,87.57
2023-12-09T01:07:10.929Z,89.15
2023-12-09T01:09:37.882Z,90.15
2023-12-09T01:12:05.219Z,87.82
2023-12-09T01:14:32.295Z,93.60
2023-12-09T01:16:59.127Z,91.80
2023-12-09T01:19:26.045Z,89.30
2023-12-09T01:21:53.006Z,73.15
2023-12-09T01:24:21.269Z,84.90
2023-12-09T01:26:48.106Z,83.03
2023-12-09T01:29:15.457Z,85.78
2023-12-09T01:31:42.314Z,96.72
2023-12-09T01:34:09.274Z,88.65
2023-12-09T01:36:36.268Z,84.20
2023-12-09T01:39:03.620Z,83.82
2023-12-09T01:41:30.729Z,108.07
2023-12-09T01:43:57.628Z,89.57
2023-12-09T01:46:24.666Z,84.80
2023-12-09T01:48:52.140Z,80.07
2023-12-09T01:51:19.435Z,80.20
2023-12-09T01:53:46.583Z,80.72
2023-12-09T01:56:16.913Z,68.35
2023-12-09T01:58:44.100Z,64.40
2023-12-09T02:01:11.368Z,81.88
2023-12-09T02:03:39.039Z,74.35
2023-12-09T02:06:06.298Z,75.32
2023-12-09T02:08:34.306Z,66.88
2023-12-09T02:11:14.522Z,67.57
2023-12-09T02:13:56.417Z,75.07
2023-12-09T02:16:54.615Z,67.82
2023-12-09T02:19:22.530Z,67.65
2023-12-09T02:22:04.803Z,88.50
2023-12-09T02:24:32.329Z,67.43
2023-12-09T02:27:22.460Z,65.35
2023-12-09T02:29:59.792Z,73.55
2023-12-09T02:32:32.357Z,82.28
2023-12-09T02:35:01.132Z,79.88
2023-12-09T02:37:29.380Z,62.80
2023-12-09T02:39:57.667Z,86.15
2023-12-09T02:42:25.234Z,73.95
2023-12-09T02:44:52.687Z,74.50
2023-12-09T02:47:19.720Z,86.07
2023-12-09T02:49:46.613Z,77.50
2023-12-09T02:52:13.914Z,79.68
2023-12-09T02:54:40.900Z,69.03
2023-12-09T02:57:07.897Z,71.70
2023-12-09T02:59:35.243Z,72.68
2023-12-09T03:02:02.083Z,61.03
2023-12-09T03:04:29.528Z,75.78
2023-12-09T03:06:56.361Z,79.05
2023-12-09T03:09:23.633Z,71.95
2023-12-09T03:11:50.547Z,74.50
2023-12-09T03:14:17.388Z,80.68
2023-12-09T03:16:44.294Z,76.18
2023-12-09T03:19:11.420Z,84.45
2023-12-09T03:21:38.425Z,71.07
2023-12-09T03:24:05.517Z,79.18
2023-12-09T03:26:33.043Z,60.40
2023-12-09T03:28:59.897Z,73.70
2023-12-09T03:31:26.931Z,83.07
2023-12-09T03:33:53.838Z,69.88
2023-12-09T03:36:20.833Z,59.58
2023-12-09T03:38:47.796Z,78.57
2023-12-09T03:41:14.711Z,86.82
2023-12-09T03:43:41.860Z,80.32
2023-12-09T03:46:08.833Z,68.57
2023-12-09T03:48:35.838Z,80.40
2023-12-09T03:51:03.291Z,75.13
2023-12-09T03:53:30.253Z,80.22
2023-12-09T03:55:57.241Z,74.72
2023-12-09T03:58:27.077Z,74.32
2023-12-09T04:00:54.264Z,74.90
2023-12-09T04:03:21.236Z,80.63
2023-12-09T04:05:48.285Z,83.18
2023-12-09T04:08:15.247Z,87.53
2023-12-09T04:10:42.143Z,85.82
2023-12-09T04:13:09.104Z,83.80
2023-12-09T04:15:36.310Z,72.50
2023-12-09T04:18:03.540Z,66.82
2023-12-09T04:20:30.502Z,64.80
2023-12-09T04:22:57.439Z,71.03
2023-12-09T04:25:25.844Z,76.15
2023-12-09T04:27:53.151Z,97.43
2023-12-09T04:30:20.120Z,73.72
2023-12-09T04:32:47.112Z,62.40
2023-12-09T04:35:13.993Z,83.60
2023-12-09T04:37:41.036Z,72.85
2023-12-09T04:40:11.871Z,83.65
2023-12-09T04:42:41.608Z,82.57
2023-12-09T04:45:09.039Z,79.80
2023-12-09T04:47:36.321Z,90.43
2023-12-09T04:50:05.311Z,85.55
2023-12-09T04:52:32.385Z,80.10
2023-12-09T04:54:59.289Z,71.47
2023-12-09T04:57:27.609Z,73.07
2023-12-09T04:59:55.758Z,67.22
2023-12-09T05:02:22.717Z,83.35
2023-12-09T05:04:49.796Z,88.38
2023-12-09T05:07:16.764Z,74.15
2023-12-09T05:09:43.734Z,85.35
2023-12-09T05:12:11.094Z,75.60
2023-12-09T05:14:38.081Z,77.35
2023-12-09T05:17:05.277Z,70.13
2023-12-09T05:19:32.182Z,74.30
2023-12-09T05:21:59.078Z,90.03
2023-12-09T05:24:25.956Z,75.63
2023-12-09T05:26:53.013Z,81.43
2023-12-09T05:29:19.950Z,74.30
2023-12-09T05:31:46.825Z,52.83
2023-12-09T05:34:13.925Z,78.97
2023-12-09T05:36:40.817Z,76.43
2023-12-09T05:39:08.156Z,71.50
2023-12-09T05:41:35.163Z,66.25
2023-12-09T05:44:02.123Z,61.00
2023-12-09T05:46:29.068Z,68.53
2023-12-09T05:48:55.992Z,48.50
2023-12-09T05:51:22.976Z,70.22
2023-12-09T05:53:50.056Z,74.35
2023-12-09T05:56:16.968Z,45.22
2023-12-09T05:58:43.911Z,73.35
2023-12-09T06:01:11.365Z,55.30
2023-12-09T06:03:38.381Z,72.85
2023-12-09T06:06:06.206Z,70.22
2023-12-09T06:08:34.014Z,61.25
2023-12-09T06:11:01.170Z,65.88
2023-12-09T06:13:28.036Z,71.50
2023-12-09T06:15:54.990Z,62.25
2023-12-09T06:18:21.970Z,69.25
2023-12-09T06:20:48.902Z,81.10
2023-12-09T06:23:15.818Z,60.50
2023-12-09T06:25:42.724Z,64.25
2023-12-09T06:28:09.735Z,69.85
2023-12-09T06:30:36.652Z,72.13
2023-12-09T06:33:03.730Z,67.75
2023-12-09T06:35:30.757Z,78.63
2023-12-09T06:37:57.921Z,80.78
2023-12-09T06:40:24.952Z,75.93
2023-12-09T06:42:51.907Z,58.03
2023-12-09T06:45:18.969Z,79.18
2023-12-09T06:47:45.982Z,69.72
2023-12-09T06:50:13.216Z,73.53
2023-12-09T06:52:40.679Z,82.60
2023-12-09T06:55:08.511Z,61.92
2023-12-09T06:57:36.247Z,77.00
2023-12-09T07:00:08.622Z,66.50
2023-12-09T07:02:44.835Z,72.10
2023-12-09T07:05:20.507Z,56.90
2023-12-09T07:07:50.036Z,62.97
2023-12-09T07:10:17.609Z,71.55
2023-12-09T07:12:45.227Z,71.15
2023-12-09T07:15:13.609Z,64.65
2023-12-09T07:17:40.971Z,57.28
2023-12-09T07:20:08.570Z,71.00
2023-12-09T07:22:35.434Z,33.08
2023-12-09T07:25:02.366Z,75.07
2023-12-09T07:27:29.404Z,37.50
2023-12-09T07:29:56.457Z,56.85
2023-12-09T07:32:23.805Z,58.28
2023-12-09T07:34:55.365Z,54.03
2023-12-09T07:37:24.031Z,60.90
2023-12-09T07:39:51.372Z,50.35
2023-12-09T07:42:18.416Z,59.53
2023-12-09T07:44:45.691Z,64.07
2023-12-09T07:47:12.528Z,37.95
2023-12-09T07:49:39.517Z,62.65
2023-12-09T07:52:07.169Z,53.55
2023-12-09T07:54:34.102Z,47.13
2023-12-09T07:57:01.188Z,43.38
2023-12-09T07:59:28.062Z,50.35
2023-12-09T08:01:55.773Z,44.85
2023-12-09T08:04:22.745Z,51.95
2023-12-09T08:06:49.713Z,50.85
2023-12-09T08:09:17.048Z,55.08
2023-12-09T08:11:43.954Z,49.35
2023-12-09T08:14:11.320Z,43.33
2023-12-09T08:16:38.549Z,52.20
2023-12-09T08:19:05.483Z,31.83
2023-12-09T08:21:38.876Z,48.85
2023-12-09T08:24:08.098Z,12.73
2023-12-09T08:26:36.260Z,40.13
2023-12-09T08:29:05.058Z,36.35
2023-12-09T08:31:35.356Z,42.42
2023-12-09T08:34:03.446Z,43.40
2023-12-09T08:36:30.555Z,39.40
2023-12-09T08:38:57.552Z,25.70
2023-12-09T08:41:24.487Z,22.30
2023-12-09T08:43:55.192Z,32.05
2023-12-09T08:46:22.123Z,39.30
2023-12-09T08:48:49.380Z,40.70
2023-12-09T08:51:16.679Z,33.38
2023-12-09T08:53:43.647Z,42.25
2023-12-09T08:56:10.704Z,32.83
2023-12-09T08:58:37.769Z,32.10
2023-12-09T09:01:05.059Z,46.80
2023-12-09T09:03:32.205Z,39.20
2023-12-09T09:05:59.527Z,24.85
2023-12-09T09:08:26.499Z,34.17
2023-12-09T09:10:54.097Z,29.40
2023-12-09T09:13:21.097Z,25.48
2023-12-09T09:15:48.207Z,41.17
2023-12-09T09:18:15.397Z,31.85
2023-12-09T09:20:44.215Z,33.35
2023-12-09T09:23:12.095Z,27.60
2023-12-09T09:25:39.313Z,37.38
2023-12-09T09:28:06.808Z,30.65
2023-12-09T09:30:33.783Z,25.95
2023-12-09T09:33:01.530Z,27.65
2023-12-09T09:35:28.632Z,35.63
2023-12-09T09:37:55.605Z,32.20
2023-12-09T09:40:22.649Z,28.63
2023-12-09T09:42:58.220Z,30.20
2023-12-09T09:45:31.528Z,25.13
2023-12-09T09:48:06.202Z,43.00
2023-12-09T09:50:46.838Z,21.88
2023-12-09T09:53:16.710Z,21.15
2023-12-09T09:55:43.756Z,21.60
2023-12-09T09:58:12.374Z,24.98
2023-12-09T10:00:40.082Z,21.23
2023-12-09T10:03:07.874Z,25.80
2023-12-09T10:05:35.005Z,24.33
2023-12-09T10:08:02.155Z,26.13
2023-12-09T10:10:31.247Z,23.15
2023-12-09T10:12:58.272Z,17.60
2023-12-09T10:15:25.341Z,23.98
2023-12-09T10:17:52.341Z,22.55
2023-12-09T10:20:19.323Z,26.48
2023-12-09T10:22:48.176Z,17.20
2023-12-09T10:25:23.451Z,23.65
2023-12-09T10:27:50.537Z,20.83
2023-12-09T10:30:22.206Z,15.88
2023-12-09T10:32:50.107Z,17.40
2023-12-09T10:35:18.206Z,19.92
2023-12-09T10:37:45.391Z,23.55
2023-12-09T10:40:12.706Z,17.58
2023-12-09T10:42:39.652Z,21.48
2023-12-09T10:45:09.353Z,22.33
2023-12-09T10:47:36.877Z,19.35
2023-12-09T10:50:05.095Z,19.85
2023-12-09T10:52:34.173Z,25.35
2023-12-09T10:55:02.086Z,15.52
2023-12-09T10:57:30.133Z,18.02
2023-12-09T10:59:58.184Z,19.08
2023-12-09T11:02:27.531Z,14.45
2023-12-09T11:04:55.511Z,16.30
2023-12-09T11:07:22.855Z,16.75
2023-12-09T11:09:50.400Z,11.88
2023-12-09T11:12:32.204Z,26.08
2023-12-09T11:15:14.955Z,24.90
2023-12-09T11:17:45.302Z,5.50
2023-12-09T11:20:16.374Z,15.37
2023-12-09T11:22:45.339Z,14.32
2023-12-09T11:25:19.223Z,8.48
2023-12-09T11:27:49.361Z,6.28
2023-12-09T11:30:41.226Z,13.02
2023-12-09T11:33:09.374Z,14.30
2023-12-09T11:35:37.972Z,16.73
2023-12-09T11:38:06.712Z,13.80
2023-12-09T11:40:34.376Z,22.05
2023-12-09T11:43:04.722Z,14.20
2023-12-09T11:45:33.154Z,18.35
2023-12-09T11:48:01.386Z,12.90
2023-12-09T11:50:30.398Z,13.38
2023-12-09T11:52:57.364Z,10.93
2023-12-09T11:55:24.390Z,13.98
2023-12-09T11:57:51.341Z,24.52
2023-12-09T12:00:20.162Z,10.90
2023-12-09T12:02:49.567Z,26.48
2023-12-09T12:05:17.176Z,15.70
2023-12-09T12:07:44.095Z,16.70
2023-12-09T12:10:11.619Z,17.33
2023-12-09T12:12:38.607Z,20.33
2023-12-09T12:15:06.450Z,14.80
2023-12-09T12:17:41.311Z,18.30
2023-12-09T12:20:11.799Z,9.48
2023-12-09T12:22:40.811Z,13.48
2023-12-09T12:25:09.760Z,25.70
2023-12-09T12:27:46.532Z,14.50
2023-12-09T12:30:14.874Z,7.30
2023-12-09T12:32:43.754Z,13.75
2023-12-09T12:35:11.029Z,18.85
2023-12-09T12:37:38.152Z,16.33
2023-12-09T12:40:06.386Z,13.27
2023-12-09T12:42:34.134Z,18.13
2023-12-09T12:45:01.474Z,18.17
2023-12-09T12:47:28.605Z,11.70
2023-12-09T12:49:55.738Z,8.00
2023-12-09T12:52:22.738Z,9.95
2023-12-09T12:54:49.704Z,6.45
2023-12-09T12:57:16.711Z,18.92
2023-12-09T12:59:44.441Z,16.95
2023-12-09T13:02:11.741Z,12.85
2023-12-09T13:04:38.686Z,15.30
2023-12-09T13:07:05.705Z,8.88
2023-12-09T13:09:35.764Z,14.57
2023-12-09T13:12:03.048Z,17.70
2023-12-09T13:14:30.092Z,9.35
2023-12-09T13:16:58.055Z,14.07
2023-12-09T13:19:24.964Z,5.80
2023-12-09T13:21:52.029Z,9.27
2023-12-09T13:24:19.088Z,10.35
2023-12-09T13:26:46.007Z,9.13
2023-12-09T13:29:13.080Z,7.85
2023-12-09T13:31:40.109Z,16.88
2023-12-09T13:34:07.165Z,10.70
2023-12-09T13:36:40.800Z,16.15
2023-12-09T13:39:12.695Z,15.77
2023-12-09T13:41:41.261Z,5.10
2023-12-09T13:44:08.216Z,10.88
2023-12-09T13:46:35.107Z,8.30
2023-12-09T13:49:02.170Z,6.38
2023-12-09T13:51:29.800Z,6.80
2023-12-09T13:53:58.741Z,6.90
2023-12-09T13:56:26.059Z,12.93
2023-12-09T13:58:53.002Z,16.63
2023-12-09T14:01:20.250Z,11.05
2023-12-09T14:03:47.407Z,2.92
2023-12-09T14:06:14.594Z,3.78
2023-12-09T14:08:42.373Z,4.90
2023-12-09T14:11:10.583Z,7.57
2023-12-09T14:13:37.573Z,3.35
2023-12-09T14:16:04.986Z,7.68
2023-12-09T14:18:32.138Z,5.03
2023-12-09T14:20:59.795Z,9.30
2023-12-09T14:23:29.106Z,9.77
2023-12-09T14:25:56.108Z,5.43
2023-12-09T14:28:24.500Z,3.17
2023-12-09T14:30:52.635Z,2.70
2023-12-09T14:33:19.969Z,7.45
2023-12-09T14:35:47.148Z,6.03
2023-12-09T14:38:14.230Z,3.45
2023-12-09T14:40:41.701Z,2.17
2023-12-09T14:43:11.791Z,6.97
2023-12-09T14:45:39.104Z,4.93
2023-12-09T14:48:08.280Z,4.25
2023-12-09T14:50:36.524Z,2.20
2023-12-09T14:53:03.518Z,7.13
2023-12-09T14:55:30.713Z,7.03
2023-12-09T14:57:57.878Z,4.07
2023-12-09T15:00:25.361Z,12.45
2023-12-09T15:02:52.408Z,8.60
2023-12-09T15:05:19.329Z,10.90
2023-12-09T15:07:46.911Z,1.83
2023-12-09T15:10:14.366Z,4.20
2023-12-09T15:12:41.387Z,4.78
2023-12-09T15:15:10.007Z,2.63
2023-12-09T15:17:38.713Z,3.38
2023-12-09T15:20:10.608Z,3.72
2023-12-09T15:22:38.441Z,4.28
2023-12-09T15:25:06.096Z,3.50
2023-12-09T15:27:33.328Z,2.17
2023-12-09T15:30:00.396Z,7.22
2023-12-09T15:32:28.202Z,4.18
2023-12-09T15:34:55.735Z,2.83
2023-12-09T15:37:22.905Z,6.00
2023-12-09T15:39:50.024Z,1.95
2023-12-09T15:42:17.736Z,4.10
2023-12-09T15:44:45.035Z,2.08
2023-12-09T15:47:12.659Z,7.25
2023-12-09T15:49:39.812Z,5.50
2023-12-09T15:52:06.825Z,1.05
2023-12-09T15:54:36.972Z,4.65
2023-12-09T15:57:04.472Z,1.67
2023-12-09T15:59:31.512Z,1.85
2023-12-09T16:01:58.462Z,5.00
2023-12-09T16:04:25.404Z,2.15
2023-12-09T16:06:52.356Z,1.83
2023-12-09T16:09:19.633Z,4.97
2023-12-09T16:11:46.681Z,12.32
2023-12-09T16:14:13.584Z,2.60
2023-12-09T16:16:40.745Z,1.45
2023-12-09T16:19:08.314Z,2.85
2023-12-09T16:21:35.501Z,3.53
2023-12-09T16:24:02.520Z,3.10
2023-12-09T16:26:32.802Z,2.90
2023-12-09T16:29:01.668Z,0.77
2023-12-09T16:31:28.709Z,3.78
2023-12-09T16:33:55.875Z,2.45
2023-12-09T16:36:23.243Z,3.42
2023-12-09T16:38:50.121Z,3.80
2023-12-09T16:41:17.053Z,8.95
2023-12-09T16:43:44.131Z,2.60
2023-12-09T16:46:11.143Z,4.68
2023-12-09T16:48:38.732Z,2.80
2023-12-09T16:51:06.118Z,6.28
2023-12-09T16:53:33.023Z,2.92
2023-12-09T16:56:01.000Z,5.07
2023-12-09T16:58:28.349Z,3.60
2023-12-09T17:00:55.563Z,4.63
2023-12-09T17:03:24.621Z,3.65
2023-12-09T17:05:52.263Z,5.68
2023-12-09T17:08:19.237Z,8.45
2023-12-09T17:10:46.269Z,6.95
2023-12-09T17:13:13.201Z,7.43
2023-12-09T17:15:40.161Z,8.43
2023-12-09T17:18:07.373Z,9.85
2023-12-09T17:20:34.368Z,8.73
2023-12-09T17:23:01.280Z,12.55
2023-12-09T17:25:28.207Z,6.95
2023-12-09T17:27:55.143Z,9.48
2023-12-09T17:30:22.373Z,10.07
2023-12-09T17:32:51.144Z,63.15
2023-12-09T17:35:18.135Z,30.35
2023-12-09T17:37:45.094Z,13.73
2023-12-09T17:40:12.595Z,14.57
2023-12-09T17:42:39.546Z,16.38
2023-12-09T17:45:08.084Z,16.38
2023-12-09T17:47:37.569Z,15.65
2023-12-09T17:50:06.323Z,14.48
2023-12-09T17:52:35.572Z,17.42
2023-12-09T17:55:05.639Z,18.15
2023-12-09T17:57:32.741Z,48.85
2023-12-09T17:59:59.718Z,23.02
2023-12-09T18:02:27.078Z,25.75
2023-12-09T18:04:54.267Z,23.08
2023-12-09T18:07:21.694Z,27.98
2023-12-09T18:09:49.340Z,28.17
2023-12-09T18:12:16.359Z,22.58
2023-12-09T18:14:43.254Z,29.15
2023-12-09T18:17:10.803Z,37.47
2023-12-09T18:19:37.769Z,36.13
2023-12-09T18:22:04.860Z,29.65
2023-12-09T18:24:31.782Z,30.85
2023-12-09T18:26:59.006Z,55.53
2023-12-09T18:29:28.537Z,49.45
2023-12-09T18:31:55.513Z,43.08
2023-12-09T18:34:23.147Z,53.15
2023-12-09T18:36:50.547Z,51.70
2023-12-09T18:39:21.544Z,55.25
2023-12-09T18:41:48.421Z,59.47
2023-12-09T18:44:16.359Z,47.40
2023-12-09T18:46:43.398Z,61.42
2023-12-09T18:49:11.150Z,66.55
2023-12-09T18:51:38.310Z,65.70
2023-12-09T18:54:05.377Z,61.65
2023-12-09T18:56:36.440Z,49.35
2023-12-09T18:59:03.986Z,59.45
2023-12-09T19:01:31.710Z,68.18
2023-12-09T19:04:01.672Z,63.13
2023-12-09T19:06:29.149Z,67.85
2023-12-09T19:08:56.729Z,70.78
2023-12-09T19:11:23.987Z,61.25
2023-12-09T19:13:50.911Z,77.15
2023-12-09T19:16:17.825Z,76.28
2023-12-09T19:18:44.806Z,71.47
2023-12-09T19:21:11.777Z,80.75
2023-12-09T19:23:38.834Z,85.47
2023-12-09T19:26:06.846Z,76.50
2023-12-09T19:28:33.964Z,72.93
2023-12-09T19:31:00.859Z,81.00
2023-12-09T19:33:28.039Z,69.43
2023-12-09T19:35:55.095Z,71.88
2023-12-09T19:38:21.958Z,62.40
2023-12-09T19:40:50.081Z,81.45
2023-12-09T19:43:17.245Z,82.88
2023-12-09T19:45:44.119Z,75.78
2023-12-09T19:48:15.384Z,87.63
2023-12-09T19:50:47.876Z,75.68
2023-12-09T19:53:15.424Z,78.68
2023-12-09T19:55:42.436Z,70.68
2023-12-09T19:58:09.482Z,67.32
2023-12-09T20:00:36.907Z,80.88
2023-12-09T20:03:06.345Z,60.08
2023-12-09T20:05:33.262Z,60.97
2023-12-09T20:08:00.136Z,59.90
2023-12-09T20:10:27.202Z,61.40
2023-12-09T20:12:55.167Z,50.47
2023-12-09T20:17:56.771Z,52.00
2023-12-09T20:20:29.707Z,61.13
2023-12-09T20:23:00.024Z,45.45
2023-12-09T20:25:27.160Z,42.03
2023-12-09T20:27:54.714Z,43.50
2023-12-09T20:30:22.424Z,41.08
2023-12-09T20:32:50.239Z,40.42
2023-12-09T20:35:17.270Z,39.03
2023-12-09T20:37:44.230Z,46.75
2023-12-09T20:40:11.710Z,57.15
2023-12-09T20:42:39.071Z,99.40
2023-12-09T20:45:06.733Z,70.03
2023-12-09T20:47:33.843Z,92.90
2023-12-09T20:50:00.949Z,45.78
2023-12-09T20:52:28.218Z,74.35
2023-12-09T20:54:55.257Z,42.15
2023-12-09T20:57:22.287Z,43.90
2023-12-09T20:59:49.474Z,48.25
2023-12-09T21:02:17.220Z,47.10
2023-12-09T21:04:45.487Z,38.42
2023-12-09T21:07:12.521Z,40.70
2023-12-09T21:09:40.886Z,57.53
2023-12-09T21:12:08.761Z,38.53
2023-12-09T21:14:35.805Z,39.63
2023-12-09T21:17:02.767Z,45.40
2023-12-09T21:19:35.487Z,52.67
2023-12-09T21:22:05.877Z,36.85
2023-12-09T21:24:32.949Z,38.20
2023-12-09T21:27:00.011Z,33.95
2023-12-09T21:29:27.403Z,33.95
2023-12-09T21:31:54.753Z,38.28
2023-12-09T21:34:21.854Z,52.00
2023-12-09T21:36:48.989Z,36.08
2023-12-09T21:39:15.924Z,48.10
2023-12-09T21:41:42.992Z,40.67
2023-12-09T21:44:09.835Z,37.03
2023-12-09T21:46:36.733Z,43.42
2023-12-09T21:49:03.702Z,34.03
2023-12-09T21:51:30.766Z,42.28
2023-12-09T21:53:57.715Z,43.60
2023-12-09T21:56:26.855Z,39.40
2023-12-09T21:58:54.185Z,37.08
2023-12-09T22:01:22.272Z,56.58
2023-12-09T22:03:49.968Z,38.78
2023-12-09T22:06:17.095Z,44.38
2023-12-09T22:08:44.583Z,41.83
2023-12-09T22:11:12.615Z,53.05
2023-12-09T22:13:40.366Z,36.75
2023-12-09T22:16:07.739Z,27.73
2023-12-09T22:18:35.641Z,44.92
2023-12-09T22:21:02.953Z,33.40
2023-12-09T22:23:29.960Z,46.60
2023-12-09T22:25:56.938Z,47.80
2023-12-09T22:28:23.819Z,40.17
2023-12-09T22:30:50.886Z,54.45
2023-12-09T22:33:18.723Z,76.78
2023-12-09T22:35:45.766Z,47.22
2023-12-09T22:38:13.451Z,40.65
2023-12-09T22:40:40.474Z,38.38
2023-12-09T22:43:07.512Z,37.58
2023-12-09T22:45:34.702Z,42.05
2023-12-09T22:48:02.818Z,46.15
2023-12-09T22:50:29.852Z,38.97
2023-12-09T22:52:56.779Z,35.92
2023-12-09T22:55:24.270Z,36.05
2023-12-09T22:57:51.429Z,44.40
2023-12-09T23:00:27.500Z,43.13
2023-12-09T23:02:54.799Z,39.15
2023-12-09T23:05:21.642Z,47.53
2023-12-09T23:07:48.501Z,36.20
2023-12-09T23:10:15.592Z,36.03
2023-12-09T23:12:42.688Z,41.95
2023-12-09T23:15:10.562Z,46.53
2023-12-09T23:17:37.660Z,42.30
2023-12-09T23:20:05.249Z,25.65
2023-12-09T23:22:32.121Z,51.70
2023-12-09T23:24:58.925Z,36.80
2023-12-09T23:27:25.881Z,45.15
2023-12-09T23:29:52.828Z,45.35
2023-12-09T23:32:19.784Z,33.58
2023-12-09T23:34:46.713Z,40.15
2023-12-09T23:37:13.846Z,47.17
2023-12-09T23:39:40.765Z,42.50
2023-12-09T23:42:07.817Z,41.03
2023-12-09T23:44:35.285Z,38.30
2023-12-09T23:47:02.172Z,46.08
2023-12-09T23:49:29.234Z,49.58
2023-12-09T23:51:56.450Z,41.42
2023-12-09T23:54:24.244Z,46.67
2023-12-09T23:56:51.412Z,35.55
2023-12-09T23:59:18.334Z,46.75
